createdAt,value
2019-05-05T00:01:49.690Z,101012.83
2019-05-05T00:04:20.389Z,101024.47
2019-05-05T00:06:49.406Z,101026.95
2019-05-05T00:09:18.448Z,101019.69
2019-05-05T00:11:51.941Z,101025.33
2019-05-05T00:14:25.047Z,101023.16
2019-05-05T00:17:14.490Z,101026.34
2019-05-05T00:19:45.449Z,101025.03
2019-05-05T00:22:15.213Z,101027.93
2019-05-05T00:24:44.526Z,101033.82
2019-05-05T00:27:14.986Z,101027.93
2019-05-05T00:29:45.331Z,101038.19
2019-05-05T00:32:15.320Z,101035.62
2019-05-05T00:34:44.893Z,101038.81
2019-05-05T00:37:15.139Z,101035.59
2019-05-05T00:39:45.244Z,101044.54
2019-05-05T00:42:15.546Z,101044.27
2019-05-05T00:44:44.891Z,101043.30
2019-05-05T00:47:18.298Z,101045.28
2019-05-05T00:49:49.434Z,101044.96
2019-05-05T00:52:19.033Z,101052.45
2019-05-05T00:54:48.059Z,101048.76
2019-05-05T00:57:17.160Z,101056.60
2019-05-05T00:59:46.213Z,101060.91
2019-05-05T01:02:16.975Z,101056.63
2019-05-05T01:04:55.067Z,101058.53
2019-05-05T01:07:24.812Z,101060.06
2019-05-05T01:09:54.383Z,101057.48
2019-05-05T01:12:24.452Z,101055.98
2019-05-05T01:14:55.273Z,101062.95
2019-05-05T01:17:25.273Z,101068.87
2019-05-05T01:20:03.127Z,101067.56
2019-05-05T01:22:25.708Z,101062.38
2019-05-05T01:24:55.373Z,101066.56
2019-05-05T01:27:25.555Z,101061.97
2019-05-05T01:29:54.799Z,101069.31
2019-05-05T01:32:30.953Z,101060.10
2019-05-05T01:35:00.148Z,101070.02
2019-05-05T01:37:34.823Z,101073.84
2019-05-05T01:40:08.820Z,101070.26
2019-05-05T01:42:37.820Z,101073.21
2019-05-05T01:45:07.686Z,101076.99
2019-05-05T01:47:36.767Z,101085.82
2019-05-05T01:50:17.580Z,101083.20
2019-05-05T01:52:38.491Z,101087.87
2019-05-05T01:55:07.533Z,101085.53
2019-05-05T01:57:37.020Z,101090.34
2019-05-05T02:00:07.760Z,101086.70
2019-05-05T02:02:36.825Z,101088.95
2019-05-05T02:05:07.544Z,101094.00
2019-05-05T02:07:36.972Z,101086.43
2019-05-05T02:10:07.694Z,101085.63
2019-05-05T02:12:36.839Z,101084.05
2019-05-05T02:15:10.121Z,101082.48
2019-05-05T02:17:39.313Z,101079.98
2019-05-05T02:20:08.707Z,101083.56
2019-05-05T02:22:37.718Z,101084.94
2019-05-05T02:25:07.702Z,101084.67
2019-05-05T02:27:36.788Z,101083.23
2019-05-05T02:30:16.231Z,101089.98
2019-05-05T02:32:47.501Z,101093.48
2019-05-05T02:35:16.993Z,101095.10
2019-05-05T02:37:46.308Z,101094.87
2019-05-05T02:40:16.899Z,101098.03
2019-05-05T02:42:48.168Z,101099.54
2019-05-05T02:45:25.030Z,101099.08
2019-05-05T02:48:05.872Z,101093.92
2019-05-05T02:51:01.241Z,101100.97
2019-05-05T02:53:29.459Z,101104.59
2019-05-05T02:56:04.182Z,101112.30
2019-05-05T02:58:35.581Z,101110.48
2019-05-05T03:01:06.687Z,101106.55
2019-05-05T03:03:39.005Z,101110.93
2019-05-05T03:06:08.190Z,101115.06
2019-05-05T03:08:40.199Z,101120.16
2019-05-05T03:11:12.028Z,101116.54
2019-05-05T03:13:44.210Z,101120.61
2019-05-05T03:16:18.882Z,101119.23
2019-05-05T03:18:49.072Z,101122.63
2019-05-05T03:21:20.419Z,101117.02
2019-05-05T03:23:50.475Z,101120.47
2019-05-05T03:26:19.942Z,101118.87
2019-05-05T03:28:57.087Z,101122.53
2019-05-05T03:31:26.839Z,101119.40
2019-05-05T03:33:56.513Z,101128.71
2019-05-05T03:36:27.255Z,101126.50
2019-05-05T03:38:56.731Z,101127.49
2019-05-05T03:41:47.182Z,101130.17
2019-05-05T03:44:30.930Z,101134.55
2019-05-05T03:47:00.651Z,101126.11
2019-05-05T03:49:31.018Z,101134.02
2019-05-05T03:52:00.720Z,101136.78
2019-05-05T03:54:30.583Z,101141.47
2019-05-05T03:57:08.604Z,101150.56
2019-05-05T03:59:39.815Z,101152.09
2019-05-05T04:02:14.218Z,101154.87
2019-05-05T04:04:47.709Z,101150.98
2019-05-05T04:07:16.848Z,101161.64
2019-05-05T04:09:46.579Z,101159.48
2019-05-05T04:12:16.412Z,101159.63
2019-05-05T04:14:45.990Z,101157.17
2019-05-05T04:17:19.392Z,101163.23
2019-05-05T04:19:50.087Z,101159.19
2019-05-05T04:22:19.118Z,101167.95
2019-05-05T04:24:48.638Z,101164.78
2019-05-05T04:27:17.697Z,101172.41
2019-05-05T04:29:46.762Z,101169.64
2019-05-05T04:32:15.792Z,101178.64
2019-05-05T04:34:44.836Z,101183.32
2019-05-05T04:37:14.879Z,101181.15
2019-05-05T04:39:44.632Z,101178.47
2019-05-05T04:42:14.287Z,101179.75
2019-05-05T04:44:44.932Z,101183.90
2019-05-05T04:47:15.760Z,101180.43
2019-05-05T04:49:46.445Z,101182.67
2019-05-05T04:52:23.659Z,101187.73
2019-05-05T04:54:55.862Z,101189.29
2019-05-05T04:57:25.151Z,101195.91
2019-05-05T04:59:54.319Z,101194.83
2019-05-05T05:02:37.727Z,101197.28
2019-05-05T05:05:11.849Z,101198.74
2019-05-05T05:07:40.867Z,101198.59
2019-05-05T05:10:10.461Z,101206.20
2019-05-05T05:12:39.490Z,101210.13
2019-05-05T05:15:09.071Z,101204.84
2019-05-05T05:17:45.624Z,101212.29
2019-05-05T05:20:14.716Z,101214.62
2019-05-05T05:22:44.071Z,101220.84
2019-05-05T05:25:13.676Z,101220.55
2019-05-05T05:27:44.343Z,101224.77
2019-05-05T05:30:13.998Z,101224.63
2019-05-05T05:32:44.546Z,101225.23
2019-05-05T05:35:14.201Z,101222.32
2019-05-05T05:37:44.737Z,101226.84
2019-05-05T05:40:23.584Z,101236.63
2019-05-05T05:42:54.219Z,101237.80
2019-05-05T05:45:43.549Z,101239.31
2019-05-05T05:48:28.923Z,101241.94
2019-05-05T05:51:00.048Z,101246.11
2019-05-05T05:53:29.060Z,101247.94
2019-05-05T05:55:58.168Z,101253.35
2019-05-05T05:58:27.233Z,101261.66
2019-05-05T06:00:57.743Z,101262.15
2019-05-05T06:03:26.767Z,101260.45
2019-05-05T06:05:55.822Z,101263.05
2019-05-05T06:08:24.936Z,101261.14
2019-05-05T06:10:54.738Z,101258.34
2019-05-05T06:13:24.307Z,101260.94
2019-05-05T06:15:53.791Z,101256.37
2019-05-05T06:18:24.356Z,101265.30
2019-05-05T06:20:53.865Z,101260.77
2019-05-05T06:23:24.065Z,101261.65
2019-05-05T06:25:55.208Z,101253.31
2019-05-05T06:28:24.260Z,101255.69
2019-05-05T06:30:54.679Z,101259.26
2019-05-05T06:33:24.304Z,101258.91
2019-05-05T06:35:53.826Z,101263.43
2019-05-05T06:38:24.235Z,101260.96
2019-05-05T06:41:04.702Z,101261.25
2019-05-05T06:43:41.158Z,101268.19
2019-05-05T06:46:28.251Z,101268.08
2019-05-05T06:48:57.360Z,101276.44
2019-05-05T06:51:26.411Z,101270.98
2019-05-05T06:53:55.447Z,101280.30
2019-05-05T06:56:24.662Z,101277.33
2019-05-05T06:58:54.111Z,101283.35
2019-05-05T07:01:24.769Z,101274.27
2019-05-05T07:03:54.207Z,101277.55
2019-05-05T07:06:23.992Z,101277.67
2019-05-05T07:08:54.558Z,101296.73
2019-05-05T07:11:23.983Z,101288.07
2019-05-05T07:13:53.740Z,101282.90
2019-05-05T07:16:24.367Z,101287.18
2019-05-05T07:18:54.077Z,101284.73
2019-05-05T07:21:23.812Z,101289.05
2019-05-05T07:23:54.025Z,101285.45
2019-05-05T07:26:23.736Z,101285.45
2019-05-05T07:28:54.197Z,101284.63
2019-05-05T07:31:23.906Z,101291.96
2019-05-05T07:33:54.426Z,101288.30
2019-05-05T07:36:44.519Z,101289.97
2019-05-05T07:39:14.444Z,101289.05
2019-05-05T07:41:44.801Z,101285.61
2019-05-05T07:44:25.713Z,101291.41
2019-05-05T07:46:45.289Z,101290.97
2019-05-05T07:49:15.214Z,101293.31
2019-05-05T07:51:44.481Z,101298.45
2019-05-05T07:54:14.474Z,101295.98
2019-05-05T07:56:44.458Z,101301.44
2019-05-05T07:59:14.627Z,101300.80
2019-05-05T08:01:46.521Z,101304.17
2019-05-05T08:04:14.598Z,101308.11
2019-05-05T08:06:44.535Z,101308.61
2019-05-05T08:09:14.682Z,101308.61
2019-05-05T08:11:43.899Z,101312.95
2019-05-05T08:14:14.543Z,101310.76
2019-05-05T08:16:53.612Z,101317.39
2019-05-05T08:19:34.634Z,101308.72
2019-05-05T08:22:04.393Z,101309.75
2019-05-05T08:24:51.593Z,101304.20
2019-05-05T08:27:38.698Z,101307.20
2019-05-05T08:30:26.406Z,101305.72
2019-05-05T08:32:55.817Z,101306.23
2019-05-05T08:35:24.933Z,101306.89
2019-05-05T08:37:54.369Z,101306.70
2019-05-05T08:40:24.053Z,101306.83
2019-05-05T08:42:53.900Z,101304.16
2019-05-05T08:45:26.155Z,101307.44
2019-05-05T08:47:54.313Z,101297.00
2019-05-05T08:50:26.456Z,101297.00
2019-05-05T08:52:54.333Z,101299.22
2019-05-05T08:55:24.915Z,101302.22
2019-05-05T08:57:54.267Z,101302.22
2019-05-05T09:00:24.498Z,101302.34
2019-05-05T09:02:54.354Z,101302.34
2019-05-05T09:05:23.896Z,101297.06
2019-05-05T09:07:54.763Z,101298.69
2019-05-05T09:10:23.950Z,101298.69
2019-05-05T09:12:54.286Z,101302.21
2019-05-05T09:15:24.250Z,101302.21
2019-05-05T09:17:54.443Z,101306.81
2019-05-05T09:20:24.283Z,101309.45
2019-05-05T09:22:54.588Z,101307.20
2019-05-05T09:25:26.074Z,101308.70
2019-05-05T09:28:05.548Z,101305.38
2019-05-05T09:30:40.464Z,101296.04
2019-05-05T09:33:09.660Z,101301.09
2019-05-05T09:35:38.701Z,101291.13
2019-05-05T09:38:07.949Z,101291.13
2019-05-05T09:40:39.483Z,101287.05
2019-05-05T09:43:09.895Z,101284.41
2019-05-05T09:45:39.707Z,101277.13
2019-05-05T09:48:08.986Z,101271.94
2019-05-05T09:50:38.062Z,101272.91
2019-05-05T09:53:07.226Z,101265.64
2019-05-05T09:55:36.406Z,101273.91
2019-05-05T09:58:05.698Z,101270.70
2019-05-05T10:00:36.374Z,101272.75
2019-05-05T10:03:05.509Z,101269.43
2019-05-05T10:05:34.741Z,101267.72
2019-05-05T10:08:03.937Z,101269.32
2019-05-05T10:10:33.692Z,101273.20
2019-05-05T10:13:04.154Z,101271.81
2019-05-05T10:15:33.890Z,101268.68
2019-05-05T10:18:03.504Z,101268.50
2019-05-05T10:20:34.385Z,101266.22
2019-05-05T10:23:03.829Z,101272.88
2019-05-05T10:25:37.220Z,101273.51
2019-05-05T10:28:06.544Z,101275.66
2019-05-05T10:30:36.400Z,101288.98
2019-05-05T10:33:05.653Z,101284.16
2019-05-05T10:35:34.742Z,101292.55
2019-05-05T10:38:04.028Z,101284.50
2019-05-05T10:40:34.619Z,101289.23
2019-05-05T10:43:04.733Z,101294.73
2019-05-05T10:45:34.514Z,101289.00
2019-05-05T10:48:04.204Z,101287.36
2019-05-05T10:50:34.418Z,101278.86
2019-05-05T10:53:04.648Z,101274.34
2019-05-05T10:55:34.825Z,101266.63
2019-05-05T10:58:04.177Z,101268.06
2019-05-05T11:00:45.196Z,101269.84
2019-05-05T11:03:15.171Z,101273.44
2019-05-05T11:05:45.231Z,101272.11
2019-05-05T11:08:14.883Z,101268.73
2019-05-05T11:10:45.183Z,101270.53
2019-05-05T11:13:14.504Z,101269.39
2019-05-05T11:15:45.103Z,101269.68
2019-05-05T11:18:15.106Z,101270.19
2019-05-05T11:20:45.257Z,101266.68
2019-05-05T11:23:15.153Z,101268.77
2019-05-05T11:25:44.746Z,101275.91
2019-05-05T11:28:14.220Z,101274.93
2019-05-05T11:30:47.008Z,101280.72
2019-05-05T11:33:29.626Z,101286.61
2019-05-05T11:36:00.615Z,101284.19
2019-05-05T11:38:29.632Z,101289.12
2019-05-05T11:40:58.746Z,101284.92
2019-05-05T11:43:27.814Z,101280.13
2019-05-05T11:45:57.199Z,101278.67
2019-05-05T11:48:26.217Z,101270.54
2019-05-05T11:50:55.531Z,101273.05
2019-05-05T11:53:25.206Z,101268.59
2019-05-05T11:55:55.115Z,101274.76
2019-05-05T11:58:26.132Z,101280.35
2019-05-05T12:00:55.555Z,101277.39
2019-05-05T12:03:24.721Z,101279.36
2019-05-05T12:05:53.784Z,101279.39
2019-05-05T12:08:23.877Z,101284.35
2019-05-05T12:11:00.567Z,101278.32
2019-05-05T12:13:29.781Z,101267.78
2019-05-05T12:16:04.561Z,101265.01
2019-05-05T12:18:34.550Z,101262.58
2019-05-05T12:21:05.047Z,101256.67
2019-05-05T12:23:34.803Z,101252.98
2019-05-05T12:26:24.334Z,101250.34
2019-05-05T12:28:55.105Z,101250.86
2019-05-05T12:31:28.770Z,101253.61
2019-05-05T12:33:58.269Z,101268.09
2019-05-05T12:36:27.311Z,101265.38
2019-05-05T12:38:56.359Z,101269.83
2019-05-05T12:41:25.512Z,101278.55
2019-05-05T12:43:55.090Z,101275.91
2019-05-05T12:46:44.102Z,101281.05
2019-05-05T12:49:13.979Z,101275.75
2019-05-05T12:51:43.641Z,101278.79
2019-05-05T12:54:14.645Z,101279.26
2019-05-05T12:56:44.536Z,101282.16
2019-05-05T12:59:15.643Z,101272.52
2019-05-05T13:01:44.875Z,101269.74
2019-05-05T13:04:14.256Z,101279.25
2019-05-05T13:06:45.052Z,101268.10
2019-05-05T13:09:16.190Z,101267.93
2019-05-05T13:11:45.206Z,101262.58
2019-05-05T13:14:14.398Z,101253.75
2019-05-05T13:16:52.374Z,101253.20
2019-05-05T13:19:16.589Z,101252.86
2019-05-05T13:21:49.938Z,101256.47
2019-05-05T13:24:29.763Z,101252.41
2019-05-05T13:27:19.098Z,101258.66
2019-05-05T13:29:44.280Z,101262.03
2019-05-05T13:32:14.182Z,101262.39
2019-05-05T13:34:43.860Z,101261.78
2019-05-05T13:37:14.090Z,101257.97
2019-05-05T13:39:44.534Z,101256.69
2019-05-05T13:42:14.001Z,101252.88
2019-05-05T13:44:50.665Z,101247.61
2019-05-05T13:47:19.782Z,101243.98
2019-05-05T13:49:49.952Z,101240.00
2019-05-05T13:52:19.008Z,101232.25
2019-05-05T13:54:48.263Z,101233.52
2019-05-05T13:57:17.290Z,101230.11
2019-05-05T13:59:50.914Z,101231.14
2019-05-05T14:02:20.801Z,101223.97
2019-05-05T14:04:49.975Z,101216.56
2019-05-05T14:07:24.465Z,101215.41
2019-05-05T14:09:54.930Z,101213.82
2019-05-05T14:12:24.602Z,101215.22
2019-05-05T14:15:03.938Z,101209.34
2019-05-05T14:17:33.635Z,101211.73
2019-05-05T14:20:11.555Z,101210.53
2019-05-05T14:22:35.967Z,101215.86
2019-05-05T14:25:08.329Z,101226.14
2019-05-05T14:27:37.426Z,101240.89
2019-05-05T14:30:23.625Z,101236.02
2019-05-05T14:32:54.533Z,101240.95
2019-05-05T14:35:25.594Z,101241.27
2019-05-05T14:37:56.325Z,101240.23
2019-05-05T14:40:25.637Z,101243.42
2019-05-05T14:42:54.714Z,101244.08
2019-05-05T14:45:24.104Z,101244.16
2019-05-05T14:47:53.665Z,101244.73
2019-05-05T14:50:24.211Z,101241.20
2019-05-05T14:52:54.164Z,101237.47
2019-05-05T14:55:25.455Z,101229.81
2019-05-05T14:57:54.270Z,101227.47
2019-05-05T15:00:25.220Z,101228.73
2019-05-05T15:02:55.182Z,101225.27
2019-05-05T15:05:44.474Z,101230.25
2019-05-05T15:08:18.240Z,101226.63
2019-05-05T15:10:58.056Z,101229.89
2019-05-05T15:13:27.139Z,101225.91
2019-05-05T15:15:56.413Z,101222.31
2019-05-05T15:18:25.518Z,101222.03
2019-05-05T15:20:54.909Z,101222.16
2019-05-05T15:23:24.184Z,101226.67
2019-05-05T15:25:53.971Z,101220.60
2019-05-05T15:28:24.498Z,101224.02
2019-05-05T15:30:54.636Z,101220.78
2019-05-05T15:33:24.436Z,101222.92
2019-05-05T15:36:14.682Z,101210.95
2019-05-05T15:38:43.921Z,101214.94
2019-05-05T15:41:14.528Z,101213.80
2019-05-05T15:43:44.171Z,101215.98
2019-05-05T15:46:15.117Z,101216.45
2019-05-05T15:48:44.081Z,101223.45
2019-05-05T15:51:14.460Z,101228.45
2019-05-05T15:53:43.844Z,101231.14
2019-05-05T15:56:13.955Z,101226.45
2019-05-05T15:58:43.509Z,101227.27
2019-05-05T16:01:14.279Z,101230.09
2019-05-05T16:03:43.681Z,101236.28
2019-05-05T16:06:14.265Z,101226.59
2019-05-05T16:08:44.494Z,101227.65
2019-05-05T16:11:14.314Z,101227.75
2019-05-05T16:13:44.034Z,101218.05
2019-05-05T16:16:23.927Z,101218.14
2019-05-05T16:19:05.610Z,101218.94
2019-05-05T16:21:45.208Z,101216.81
2019-05-05T16:24:16.166Z,101216.61
2019-05-05T16:26:45.402Z,101221.91
2019-05-05T16:29:14.859Z,101227.64
2019-05-05T16:31:44.007Z,101223.87
2019-05-05T16:34:14.298Z,101231.39
2019-05-05T16:36:44.048Z,101230.28
2019-05-05T16:39:13.849Z,101230.61
2019-05-05T16:41:44.238Z,101230.25
2019-05-05T16:44:15.566Z,101230.37
2019-05-05T16:46:44.157Z,101234.34
2019-05-05T16:49:14.018Z,101231.53
2019-05-05T16:51:47.792Z,101230.16
2019-05-05T16:54:18.463Z,101236.18
2019-05-05T16:56:47.899Z,101240.39
2019-05-05T16:59:16.910Z,101233.17
2019-05-05T17:01:46.094Z,101235.39
2019-05-05T17:04:15.138Z,101240.16
2019-05-05T17:06:45.829Z,101251.41
2019-05-05T17:09:15.115Z,101251.83
2019-05-05T17:11:45.800Z,101261.57
2019-05-05T17:14:16.470Z,101254.49
2019-05-05T17:16:50.198Z,101264.34
2019-05-05T17:19:23.530Z,101271.09
2019-05-05T17:21:54.228Z,101258.81
2019-05-05T17:24:23.975Z,101261.70
2019-05-05T17:26:54.980Z,101259.31
2019-05-05T17:29:24.327Z,101262.89
2019-05-05T17:31:54.093Z,101265.67
2019-05-05T17:34:24.677Z,101263.14
2019-05-05T17:36:54.216Z,101262.39
2019-05-05T17:39:24.934Z,101262.06
2019-05-05T17:41:58.558Z,101259.89
2019-05-05T17:44:33.685Z,101263.99
2019-05-05T17:47:24.350Z,101270.74
2019-05-05T17:50:06.969Z,101263.77
2019-05-05T17:52:37.689Z,101272.80
2019-05-05T17:55:08.477Z,101271.09
2019-05-05T17:57:37.498Z,101274.09
2019-05-05T18:00:08.897Z,101275.06
2019-05-05T18:02:37.987Z,101276.16
2019-05-05T18:05:07.416Z,101277.81
2019-05-05T18:07:38.095Z,101278.43
2019-05-05T18:10:13.494Z,101281.09
2019-05-05T18:12:56.675Z,101280.96
2019-05-05T18:15:43.576Z,101283.50
2019-05-05T18:18:13.930Z,101283.61
2019-05-05T18:20:44.945Z,101286.12
2019-05-05T18:23:14.468Z,101287.22
2019-05-05T18:25:44.201Z,101295.28
2019-05-05T18:28:19.711Z,101290.31
2019-05-05T18:30:45.359Z,101293.20
2019-05-05T18:33:14.837Z,101291.16
2019-05-05T18:35:44.356Z,101290.66
2019-05-05T18:38:13.869Z,101297.59
2019-05-05T18:40:43.535Z,101297.20
2019-05-05T18:43:14.401Z,101299.48
2019-05-05T18:45:44.154Z,101307.34
2019-05-05T18:48:14.272Z,101307.34
2019-05-05T18:50:43.377Z,101319.44
2019-05-05T18:53:14.038Z,101317.76
2019-05-05T18:55:44.632Z,101313.62
2019-05-05T18:58:26.259Z,101325.96
2019-05-05T19:00:59.707Z,101323.94
2019-05-05T19:03:30.462Z,101332.47
2019-05-05T19:06:01.290Z,101332.47
2019-05-05T19:08:31.998Z,101332.80
2019-05-05T19:11:03.715Z,101335.06
2019-05-05T19:13:35.518Z,101335.06
2019-05-05T19:16:04.683Z,101334.87
2019-05-05T19:18:35.921Z,101330.11
2019-05-05T19:21:07.148Z,101334.84
2019-05-05T19:23:36.210Z,101334.84
2019-05-05T19:26:07.596Z,101316.61
2019-05-05T19:28:44.264Z,101341.86
2019-05-05T19:31:07.137Z,101345.73
2019-05-05T19:33:36.272Z,101340.39
2019-05-05T19:36:05.493Z,101352.11
2019-05-05T19:38:34.754Z,101346.43
2019-05-05T19:41:04.142Z,101352.86
2019-05-05T19:43:34.019Z,101355.05
2019-05-05T19:46:05.465Z,101359.08
2019-05-05T19:48:34.642Z,101358.78
2019-05-05T19:51:05.768Z,101360.33
2019-05-05T19:53:35.570Z,101363.53
2019-05-05T19:56:04.977Z,101362.41
2019-05-05T19:58:36.354Z,101368.19
2019-05-05T20:01:05.090Z,101367.06
2019-05-05T20:03:35.123Z,101366.61
2019-05-05T20:06:05.337Z,101367.50
2019-05-05T20:08:41.067Z,101369.25
2019-05-05T20:11:05.797Z,101365.98
2019-05-05T20:13:35.017Z,101370.59
2019-05-05T20:16:20.928Z,101371.95
2019-05-05T20:18:50.524Z,101373.54
2019-05-05T20:21:19.622Z,101376.69
2019-05-05T20:23:48.754Z,101373.89
2019-05-05T20:26:17.765Z,101376.45
2019-05-05T20:28:46.891Z,101379.23
2019-05-05T20:31:15.931Z,101379.80
2019-05-05T20:33:58.178Z,101379.09
2019-05-05T20:36:29.338Z,101382.20
2019-05-05T20:38:58.390Z,101384.56
2019-05-05T20:41:27.542Z,101387.79
2019-05-05T20:43:56.711Z,101388.80
2019-05-05T20:46:25.737Z,101390.58
2019-05-05T20:48:55.046Z,101390.84
2019-05-05T20:51:24.347Z,101391.80
2019-05-05T20:53:54.206Z,101390.75
2019-05-05T20:56:23.860Z,101389.39
2019-05-05T20:58:54.811Z,101399.11
2019-05-05T21:01:24.605Z,101394.02
2019-05-05T21:03:53.991Z,101391.00
2019-05-05T21:06:24.571Z,101391.00
2019-05-05T21:08:54.135Z,101389.61
2019-05-05T21:11:24.634Z,101386.82
2019-05-05T21:13:54.436Z,101383.76
2019-05-05T21:16:23.840Z,101378.58
2019-05-05T21:18:53.879Z,101378.58
2019-05-05T21:21:25.033Z,101387.22
2019-05-05T21:23:55.714Z,101394.86
2019-05-05T21:26:26.391Z,101387.34
2019-05-05T21:28:55.470Z,101387.34
2019-05-05T21:31:24.488Z,101392.95
2019-05-05T21:33:54.763Z,101397.98
2019-05-05T21:36:24.358Z,101397.98
2019-05-05T21:38:54.827Z,101398.41
2019-05-05T21:41:24.507Z,101400.28
2019-05-05T21:43:54.175Z,101400.28
2019-05-05T21:46:24.023Z,101398.81
2019-05-05T21:48:54.328Z,101403.66
2019-05-05T21:51:28.241Z,101403.66
2019-05-05T21:53:58.927Z,101400.10
2019-05-05T21:56:45.924Z,101402.00
2019-05-05T21:59:14.984Z,101399.03
2019-05-05T22:01:49.059Z,101408.29
2019-05-05T22:04:15.252Z,101408.29
2019-05-05T22:06:44.291Z,101394.55
2019-05-05T22:09:14.677Z,101402.55
2019-05-05T22:11:44.295Z,101401.30
2019-05-05T22:14:13.985Z,101401.30
2019-05-05T22:16:44.597Z,101401.62
2019-05-05T22:19:14.576Z,101401.62
2019-05-05T22:21:45.587Z,101401.30
2019-05-05T22:24:22.315Z,101403.56
2019-05-05T22:26:54.192Z,101399.11
2019-05-05T22:29:24.966Z,101400.77
2019-05-05T22:31:54.584Z,101400.77
2019-05-05T22:34:24.124Z,101409.20
2019-05-05T22:36:53.425Z,101406.02
2019-05-05T22:39:24.367Z,101409.67
2019-05-05T22:41:54.329Z,101409.67
2019-05-05T22:44:24.362Z,101411.91
2019-05-05T22:46:53.939Z,101407.05
2019-05-05T22:49:24.159Z,101407.05
2019-05-05T22:51:54.144Z,101410.73
2019-05-05T22:54:24.126Z,101410.73
2019-05-05T22:56:53.901Z,101406.37
2019-05-05T22:59:24.177Z,101409.23
2019-05-05T23:01:54.201Z,101412.27
2019-05-05T23:04:25.150Z,101412.27
2019-05-05T23:07:03.686Z,101407.27
2019-05-05T23:09:32.326Z,101409.26
2019-05-05T23:12:01.379Z,101409.26
2019-05-05T23:14:30.523Z,101416.66
2019-05-05T23:17:05.615Z,101416.66
2019-05-05T23:19:42.051Z,101410.94
2019-05-05T23:22:14.622Z,101410.59
2019-05-05T23:24:45.290Z,101419.41
2019-05-05T23:27:34.224Z,101419.41
2019-05-05T23:30:03.243Z,101409.38
2019-05-05T23:32:34.066Z,101421.22
2019-05-05T23:35:02.962Z,101420.55
2019-05-05T23:37:34.213Z,101420.28
2019-05-05T23:40:03.767Z,101420.28
2019-05-05T23:42:33.833Z,101426.41
2019-05-05T23:45:04.427Z,101419.83
2019-05-05T23:47:34.536Z,101421.14
2019-05-05T23:50:05.599Z,101421.14
2019-05-05T23:52:35.064Z,101418.11
2019-05-05T23:55:06.298Z,101418.77
2019-05-05T23:57:35.344Z,101418.77
